Moruya Heads, Australia
Current Conditions -  °F | °C
As of 12:30 AM on Saturday 29 Nov 2014 (Local Time) from YSCB Reporting Station
Clear Clear  
Wind Chill: 55°   Ceiling: Unl
Heat Index: 55°   Visibility: 6mi
Dew Point: 50°   Wind: 8mph
Humidity: 82%   Direction: 90°E
Pressure: 30.12"   Gusts: NA
Location:  35.91°S, 150.13°E
Report Text: YSCB 281330Z AUTO 09007KT 9999 // NCD 13/10 Q1020
Loading
Personal Weather Stations






























Interactive Weather Map New forecast layout! Learn more

10-Day Weather Forecast

Advertisements
Track Severe Weather on mobile